createdAt,value
2022-09-14T00:00:38.338Z,84.65
2022-09-14T00:01:38.408Z,84.95
2022-09-14T00:02:38.455Z,84.75
2022-09-14T00:03:38.277Z,84.85
2022-09-14T00:04:38.289Z,85.16
2022-09-14T00:05:38.257Z,85.36
2022-09-14T00:06:38.242Z,85.10
2022-09-14T00:07:38.223Z,85.10
2022-09-14T00:08:38.238Z,85.30
2022-09-14T00:09:38.220Z,85.16
2022-09-14T00:10:38.185Z,84.95
2022-09-14T00:11:38.194Z,84.85
2022-09-14T00:12:38.154Z,85.36
2022-09-14T00:13:38.152Z,85.36
2022-09-14T00:14:38.183Z,84.99
2022-09-14T00:15:38.142Z,84.79
2022-09-14T00:16:38.202Z,85.60
2022-09-14T00:17:38.083Z,85.90
2022-09-14T00:18:38.074Z,85.90
2022-09-14T00:19:38.059Z,85.80
2022-09-14T00:20:38.066Z,85.50
2022-09-14T00:21:38.062Z,85.60
2022-09-14T00:22:38.022Z,85.70
2022-09-14T00:23:38.011Z,85.39
2022-09-14T00:24:38.021Z,85.30
2022-09-14T00:25:37.983Z,85.56
2022-09-14T00:26:37.983Z,85.80
2022-09-14T00:27:37.951Z,85.30
2022-09-14T00:28:37.945Z,85.30
2022-09-14T00:29:37.967Z,85.80
2022-09-14T00:30:37.957Z,86.10
2022-09-14T00:31:37.966Z,85.90
2022-09-14T00:32:37.910Z,86.00
2022-09-14T00:33:37.867Z,86.21
2022-09-14T00:34:37.864Z,86.41
2022-09-14T00:35:37.839Z,86.10
2022-09-14T00:36:37.867Z,86.10
2022-09-14T00:37:37.820Z,86.21
2022-09-14T00:38:37.831Z,86.21
2022-09-14T00:39:37.815Z,86.10
2022-09-14T00:40:37.780Z,86.91
2022-09-14T00:41:37.763Z,86.82
2022-09-14T00:42:37.766Z,86.51
2022-09-14T00:43:37.738Z,86.21
2022-09-14T00:44:37.752Z,86.21
2022-09-14T00:45:37.832Z,86.41
2022-09-14T00:46:37.719Z,85.60
2022-09-14T00:47:37.738Z,86.61
2022-09-14T00:48:37.672Z,85.80
2022-09-14T00:49:37.659Z,85.66
2022-09-14T00:50:37.658Z,86.16
2022-09-14T00:51:37.663Z,86.27
2022-09-14T00:52:37.630Z,85.76
2022-09-14T00:53:37.604Z,86.16
2022-09-14T00:54:37.622Z,86.57
2022-09-14T00:55:37.584Z,85.96
2022-09-14T00:56:37.577Z,85.76
2022-09-14T00:57:37.581Z,85.86
2022-09-14T00:58:37.541Z,86.41
2022-09-14T00:59:37.539Z,86.51
2022-09-14T01:00:37.602Z,86.71
2022-09-14T01:01:37.597Z,87.22
2022-09-14T01:02:37.566Z,87.22
2022-09-14T01:03:37.465Z,87.22
2022-09-14T01:04:37.479Z,87.02
2022-09-14T01:05:37.444Z,87.22
2022-09-14T01:06:37.483Z,86.82
2022-09-14T01:07:37.454Z,87.22
2022-09-14T01:08:37.403Z,87.12
2022-09-14T01:09:37.454Z,86.82
2022-09-14T01:10:37.408Z,86.31
2022-09-14T01:11:37.363Z,86.51
2022-09-14T01:12:37.393Z,87.32
2022-09-14T01:13:37.379Z,87.62
2022-09-14T01:14:37.336Z,87.42
2022-09-14T01:15:37.334Z,87.42
2022-09-14T01:16:37.433Z,87.12
2022-09-14T01:17:37.314Z,87.02
2022-09-14T01:18:37.271Z,87.02
2022-09-14T01:19:37.301Z,87.02
2022-09-14T01:20:37.264Z,87.02
2022-09-14T01:21:37.234Z,86.91
2022-09-14T01:22:37.243Z,87.12
2022-09-14T01:23:37.198Z,87.12
2022-09-14T01:24:37.193Z,86.51
2022-09-14T01:25:37.201Z,86.82
2022-09-14T01:26:37.174Z,87.22
2022-09-14T01:27:37.159Z,87.32
2022-09-14T01:28:37.155Z,87.87
2022-09-14T01:29:37.149Z,87.87
2022-09-14T01:30:37.112Z,88.17
2022-09-14T01:31:37.195Z,87.97
2022-09-14T01:32:37.114Z,87.56
2022-09-14T01:33:37.079Z,87.56
2022-09-14T01:34:37.060Z,87.66
2022-09-14T01:35:37.063Z,87.36
2022-09-14T01:36:37.042Z,87.26
2022-09-14T01:37:37.070Z,87.62
2022-09-14T01:38:37.017Z,87.52
2022-09-14T01:39:37.009Z,86.82
2022-09-14T01:40:37.022Z,87.22
2022-09-14T01:41:37.025Z,87.22
2022-09-14T01:42:36.971Z,87.12
2022-09-14T01:43:37.152Z,86.71
2022-09-14T01:44:36.925Z,87.02
2022-09-14T01:45:36.953Z,87.62
2022-09-14T01:46:36.924Z,87.42
2022-09-14T01:47:36.893Z,86.91
2022-09-14T01:48:36.897Z,86.71
2022-09-14T01:49:36.856Z,86.71
2022-09-14T01:50:36.887Z,86.91
2022-09-14T01:51:36.856Z,86.91
2022-09-14T01:52:36.821Z,86.71
2022-09-14T01:53:36.804Z,86.61
2022-09-14T01:54:36.789Z,86.91
2022-09-14T01:55:36.779Z,87.12
2022-09-14T01:56:36.794Z,86.91
2022-09-14T01:57:36.753Z,87.32
2022-09-14T01:58:36.745Z,87.32
2022-09-14T01:59:36.772Z,87.02
2022-09-14T02:00:36.743Z,87.22
2022-09-14T02:01:36.717Z,87.32
2022-09-14T02:02:36.826Z,86.91
2022-09-14T02:03:36.664Z,87.12
2022-09-14T02:04:36.671Z,87.42
2022-09-14T02:05:36.639Z,87.32
2022-09-14T02:06:36.646Z,86.91
2022-09-14T02:07:36.638Z,87.62
2022-09-14T02:08:36.659Z,87.93
2022-09-14T02:09:36.617Z,88.17
2022-09-14T02:10:36.574Z,88.57
2022-09-14T02:11:36.576Z,88.48
2022-09-14T02:12:36.614Z,88.17
2022-09-14T02:13:36.554Z,88.07
2022-09-14T02:14:36.537Z,87.87
2022-09-14T02:15:36.505Z,88.07
2022-09-14T02:16:36.578Z,88.07
2022-09-14T02:17:36.483Z,88.17
2022-09-14T02:18:36.500Z,88.78
2022-09-14T02:19:36.464Z,88.27
2022-09-14T02:20:36.441Z,87.66
2022-09-14T02:21:36.441Z,87.97
2022-09-14T02:22:36.414Z,88.17
2022-09-14T02:23:36.423Z,87.87
2022-09-14T02:24:36.395Z,87.66
2022-09-14T02:25:36.372Z,87.97
2022-09-14T02:26:36.381Z,87.56
2022-09-14T02:27:36.351Z,87.56
2022-09-14T02:28:36.338Z,87.26
2022-09-14T02:29:36.338Z,87.36
2022-09-14T02:30:36.309Z,87.66
2022-09-14T02:31:36.393Z,87.32
2022-09-14T02:32:36.314Z,87.62
2022-09-14T02:33:36.319Z,88.07
2022-09-14T02:34:36.280Z,87.66
2022-09-14T02:35:36.243Z,87.66
2022-09-14T02:36:36.290Z,87.97
2022-09-14T02:37:36.351Z,87.77
2022-09-14T02:38:36.218Z,88.17
2022-09-14T02:39:36.195Z,87.87
2022-09-14T02:40:36.212Z,88.07
2022-09-14T02:41:36.170Z,88.48
2022-09-14T02:42:36.168Z,88.17
2022-09-14T02:43:36.141Z,88.48
2022-09-14T02:44:36.143Z,88.37
2022-09-14T02:45:36.159Z,88.68
2022-09-14T02:46:36.174Z,88.98
2022-09-14T02:47:36.095Z,88.68
2022-09-14T02:48:36.117Z,88.68
2022-09-14T02:49:36.080Z,88.68
2022-09-14T02:50:36.052Z,88.98
2022-09-14T02:51:36.036Z,88.98
2022-09-14T02:52:36.028Z,88.98
2022-09-14T02:53:36.005Z,88.88
2022-09-14T02:54:36.043Z,88.88
2022-09-14T02:55:36.006Z,88.68
2022-09-14T02:56:35.970Z,88.78
2022-09-14T02:57:35.957Z,89.08
2022-09-14T02:58:35.941Z,88.98
2022-09-14T02:59:35.971Z,89.08
2022-09-14T03:00:36.003Z,89.28
2022-09-14T03:01:35.936Z,88.88
2022-09-14T03:02:35.915Z,88.98
2022-09-14T03:03:36.062Z,88.98
2022-09-14T03:04:35.863Z,88.88
2022-09-14T03:05:35.847Z,89.18
2022-09-14T03:06:35.852Z,89.08
2022-09-14T03:07:35.821Z,88.57
2022-09-14T03:08:35.831Z,88.48
2022-09-14T03:09:35.850Z,88.07
2022-09-14T03:10:35.784Z,88.27
2022-09-14T03:11:35.795Z,88.53
2022-09-14T03:12:35.778Z,88.94
2022-09-14T03:13:35.770Z,88.43
2022-09-14T03:14:35.730Z,88.94
2022-09-14T03:15:35.741Z,88.64
2022-09-14T03:16:35.826Z,88.53
2022-09-14T03:17:35.676Z,88.33
2022-09-14T03:18:35.697Z,88.43
2022-09-14T03:19:35.655Z,88.33
2022-09-14T03:20:35.671Z,88.33
2022-09-14T03:21:35.641Z,88.33
2022-09-14T03:22:35.625Z,87.93
2022-09-14T03:23:35.626Z,87.82
2022-09-14T03:24:35.599Z,87.82
2022-09-14T03:25:35.574Z,87.93
2022-09-14T03:26:35.583Z,88.33
2022-09-14T03:27:35.555Z,88.74
2022-09-14T03:28:35.536Z,88.23
2022-09-14T03:29:35.545Z,87.73
2022-09-14T03:30:35.520Z,87.93
2022-09-14T03:31:35.588Z,88.33
2022-09-14T03:32:35.483Z,88.43
2022-09-14T03:33:35.480Z,88.64
2022-09-14T03:34:35.461Z,88.43
2022-09-14T03:35:35.455Z,88.33
2022-09-14T03:36:35.458Z,88.33
2022-09-14T03:37:35.441Z,88.33
2022-09-14T03:38:35.412Z,88.74
2022-09-14T03:39:35.393Z,88.64
2022-09-14T03:40:35.515Z,88.94
2022-09-14T03:41:35.367Z,88.94
2022-09-14T03:42:35.373Z,88.78
2022-09-14T03:43:35.352Z,89.08
2022-09-14T03:44:35.328Z,89.18
2022-09-14T03:45:35.324Z,88.78
2022-09-14T03:46:35.379Z,88.98
2022-09-14T03:47:35.305Z,88.88
2022-09-14T03:48:35.271Z,89.08
2022-09-14T03:49:35.263Z,88.88
2022-09-14T03:50:35.260Z,88.88
2022-09-14T03:51:35.239Z,88.78
2022-09-14T03:52:35.242Z,88.78
2022-09-14T03:53:35.208Z,89.08
2022-09-14T03:54:35.207Z,88.98
2022-09-14T03:55:35.185Z,88.98
2022-09-14T03:56:35.165Z,88.78
2022-09-14T03:57:35.177Z,88.98
2022-09-14T03:58:35.147Z,89.08
2022-09-14T03:59:35.124Z,88.98
2022-09-14T04:00:35.126Z,88.68
2022-09-14T04:01:35.194Z,88.48
2022-09-14T04:02:35.174Z,88.48
2022-09-14T04:03:35.069Z,88.27
2022-09-14T04:04:35.069Z,88.43
2022-09-14T04:05:35.048Z,88.43
2022-09-14T04:06:35.056Z,88.43
2022-09-14T04:07:35.052Z,88.84
2022-09-14T04:08:35.028Z,88.94
2022-09-14T04:09:34.990Z,89.04
2022-09-14T04:10:34.984Z,88.64
2022-09-14T04:11:34.989Z,89.14
2022-09-14T04:12:34.957Z,89.04
2022-09-14T04:13:34.974Z,88.84
2022-09-14T04:14:34.934Z,88.74
2022-09-14T04:15:34.906Z,88.78
2022-09-14T04:16:34.936Z,88.64
2022-09-14T04:17:34.897Z,88.64
2022-09-14T04:18:34.899Z,88.74
2022-09-14T04:19:34.874Z,88.74
2022-09-14T04:20:34.844Z,89.08
2022-09-14T04:21:34.835Z,89.28
2022-09-14T04:22:34.880Z,89.28
2022-09-14T04:23:46.178Z,89.08
2022-09-14T04:24:34.831Z,88.78
2022-09-14T04:25:34.778Z,88.57
2022-09-14T04:26:34.771Z,88.37
2022-09-14T04:27:34.787Z,88.78
2022-09-14T04:28:34.727Z,88.68
2022-09-14T04:29:34.722Z,88.78
2022-09-14T04:30:34.743Z,88.48
2022-09-14T04:31:34.777Z,88.37
2022-09-14T04:32:34.805Z,88.78
2022-09-14T04:33:34.695Z,88.78
2022-09-14T04:34:34.655Z,88.98
2022-09-14T04:35:34.642Z,88.78
2022-09-14T04:36:34.631Z,88.48
2022-09-14T04:37:34.611Z,88.27
2022-09-14T04:38:34.626Z,88.74
2022-09-14T04:39:34.586Z,88.94
2022-09-14T04:40:34.577Z,89.14
2022-09-14T04:41:34.588Z,89.04
2022-09-14T04:42:34.586Z,89.34
2022-09-14T04:43:34.548Z,89.54
2022-09-14T04:44:34.543Z,89.34
2022-09-14T04:45:34.549Z,89.45
2022-09-14T04:46:34.527Z,89.08
2022-09-14T04:47:34.516Z,88.78
2022-09-14T04:48:34.506Z,88.84
2022-09-14T04:49:34.469Z,88.53
2022-09-14T04:50:34.452Z,88.64
2022-09-14T04:51:34.457Z,88.74
2022-09-14T04:52:34.497Z,88.94
2022-09-14T04:53:34.414Z,89.28
2022-09-14T04:54:34.422Z,88.64
2022-09-14T04:55:34.390Z,88.78
2022-09-14T04:56:34.358Z,88.57
2022-09-14T04:57:34.377Z,88.64
2022-09-14T04:58:34.346Z,89.04
2022-09-14T04:59:34.351Z,89.14
2022-09-14T05:00:34.304Z,88.94
2022-09-14T05:01:34.414Z,88.94
2022-09-14T05:02:34.356Z,88.94
2022-09-14T05:03:34.295Z,89.04
2022-09-14T05:04:34.261Z,89.34
2022-09-14T05:05:34.255Z,89.34
2022-09-14T05:06:34.229Z,89.14
2022-09-14T05:07:34.246Z,88.84
2022-09-14T05:08:34.284Z,88.84
2022-09-14T05:09:34.198Z,88.94
2022-09-14T05:10:34.240Z,88.74
2022-09-14T05:11:34.179Z,88.53
2022-09-14T05:12:34.158Z,88.94
2022-09-14T05:13:34.189Z,89.14
2022-09-14T05:14:34.125Z,88.84
2022-09-14T05:15:34.136Z,88.94
2022-09-14T05:16:34.113Z,88.74
2022-09-14T05:17:34.088Z,88.90
2022-09-14T05:18:34.090Z,88.79
2022-09-14T05:19:34.052Z,89.45
2022-09-14T05:20:34.044Z,89.75
2022-09-14T05:21:34.027Z,89.65
2022-09-14T05:22:34.043Z,89.54
2022-09-14T05:23:34.039Z,89.45
2022-09-14T05:24:33.985Z,89.65
2022-09-14T05:25:33.992Z,89.45
2022-09-14T05:26:33.958Z,89.75
2022-09-14T05:27:33.967Z,90.05
2022-09-14T05:28:33.924Z,90.16
2022-09-14T05:29:33.951Z,90.05
2022-09-14T05:30:33.904Z,89.65
2022-09-14T05:31:33.978Z,89.54
2022-09-14T05:32:33.911Z,89.95
2022-09-14T05:33:33.904Z,89.54
2022-09-14T05:34:33.860Z,89.54
2022-09-14T05:35:33.850Z,89.14
2022-09-14T05:36:33.833Z,89.24
2022-09-14T05:37:33.821Z,88.84
2022-09-14T05:38:33.844Z,88.23
2022-09-14T05:39:33.795Z,88.29
2022-09-14T05:40:33.840Z,88.49
2022-09-14T05:41:33.794Z,88.79
2022-09-14T05:42:33.769Z,89.30
2022-09-14T05:43:33.736Z,89.10
2022-09-14T05:44:33.756Z,88.90
2022-09-14T05:45:33.730Z,88.79
2022-09-14T05:46:33.794Z,88.90
2022-09-14T05:47:38.372Z,89.20
2022-09-14T05:48:33.682Z,88.90
2022-09-14T05:49:33.758Z,88.59
2022-09-14T05:50:33.660Z,88.49
2022-09-14T05:51:33.631Z,88.79
2022-09-14T05:52:33.633Z,89.30
2022-09-14T05:53:33.642Z,89.30
2022-09-14T05:54:33.607Z,89.10
2022-09-14T05:55:33.594Z,88.90
2022-09-14T05:56:33.596Z,89.61
2022-09-14T05:57:33.563Z,89.61
2022-09-14T05:58:33.529Z,89.30
2022-09-14T05:59:33.520Z,89.40
2022-09-14T06:00:33.521Z,88.70
2022-09-14T06:01:33.586Z,89.26
2022-09-14T06:02:33.500Z,89.26
2022-09-14T06:03:33.466Z,89.06
2022-09-14T06:04:33.469Z,89.26
2022-09-14T06:05:33.469Z,89.36
2022-09-14T06:06:33.428Z,89.16
2022-09-14T06:07:33.431Z,89.56
2022-09-14T06:08:33.409Z,88.04
2022-09-14T06:09:33.496Z,88.04
2022-09-14T06:10:33.385Z,88.85
2022-09-14T06:11:33.368Z,89.26
2022-09-14T06:12:33.358Z,89.22
2022-09-14T06:13:33.369Z,89.22
2022-09-14T06:14:33.331Z,89.01
2022-09-14T06:15:33.314Z,88.92
2022-09-14T06:16:33.295Z,88.81
2022-09-14T06:17:33.332Z,88.51
2022-09-14T06:18:33.269Z,88.51
2022-09-14T06:19:33.275Z,88.21
2022-09-14T06:20:33.254Z,88.41
2022-09-14T06:21:33.226Z,88.51
2022-09-14T06:22:33.263Z,88.01
2022-09-14T06:23:33.201Z,87.70
2022-09-14T06:24:33.243Z,87.81
2022-09-14T06:25:33.209Z,87.70
2022-09-14T06:26:33.207Z,87.81
2022-09-14T06:27:33.162Z,87.86
2022-09-14T06:28:33.145Z,87.96
2022-09-14T06:29:33.144Z,87.66
2022-09-14T06:30:33.175Z,87.96
2022-09-14T06:31:33.235Z,88.06
2022-09-14T06:32:33.082Z,87.56
2022-09-14T06:33:33.085Z,87.56
2022-09-14T06:34:33.091Z,87.86
2022-09-14T06:35:33.053Z,88.26
2022-09-14T06:36:33.023Z,87.96
2022-09-14T06:37:33.010Z,87.46
2022-09-14T06:38:33.014Z,87.05
2022-09-14T06:39:32.984Z,87.05
2022-09-14T06:40:33.030Z,87.05
2022-09-14T06:41:32.983Z,87.36
2022-09-14T06:42:32.943Z,88.37
2022-09-14T06:43:32.972Z,88.47
2022-09-14T06:44:32.928Z,88.06
2022-09-14T06:45:32.987Z,87.12
2022-09-14T06:46:32.912Z,87.82
2022-09-14T06:47:32.884Z,87.66
2022-09-14T06:48:32.863Z,87.15
2022-09-14T06:49:32.855Z,88.02
2022-09-14T06:50:32.872Z,88.02
2022-09-14T06:51:32.834Z,88.53
2022-09-14T06:52:33.920Z,88.83
2022-09-14T06:53:32.809Z,89.03
2022-09-14T06:54:32.784Z,89.54
2022-09-14T06:55:32.821Z,89.94
2022-09-14T06:56:32.761Z,90.45
2022-09-14T06:57:32.761Z,90.24
2022-09-14T06:58:32.736Z,89.74
2022-09-14T06:59:32.747Z,89.94
2022-09-14T07:00:32.733Z,90.34
2022-09-14T07:01:32.723Z,90.04
2022-09-14T07:02:32.747Z,90.04
2022-09-14T07:03:32.663Z,89.43
2022-09-14T07:04:32.680Z,89.23
2022-09-14T07:05:32.648Z,89.74
2022-09-14T07:06:32.625Z,89.34
2022-09-14T07:07:32.625Z,88.73
2022-09-14T07:08:32.603Z,87.41
2022-09-14T07:09:32.679Z,87.12
2022-09-14T07:10:32.578Z,87.82
2022-09-14T07:11:32.574Z,88.63
2022-09-14T07:12:32.584Z,89.13
2022-09-14T07:13:32.539Z,89.13
2022-09-14T07:14:32.627Z,88.73
2022-09-14T07:15:32.541Z,88.53
2022-09-14T07:16:32.497Z,88.63
2022-09-14T07:17:32.508Z,88.93
2022-09-14T07:18:32.489Z,88.32
2022-09-14T07:19:32.448Z,88.53
2022-09-14T07:20:32.440Z,88.43
2022-09-14T07:21:32.462Z,88.39
2022-09-14T07:22:32.415Z,89.70
2022-09-14T07:23:32.443Z,89.19
2022-09-14T07:24:32.401Z,88.99
2022-09-14T07:25:32.373Z,89.29
2022-09-14T07:26:32.375Z,89.29
2022-09-14T07:27:32.355Z,89.70
2022-09-14T07:28:33.186Z,87.58
2022-09-14T07:29:32.354Z,86.67
2022-09-14T07:30:32.344Z,87.27
2022-09-14T07:31:32.303Z,87.07
2022-09-14T07:32:32.311Z,87.48
2022-09-14T07:33:32.386Z,87.78
2022-09-14T07:34:32.264Z,87.68
2022-09-14T07:35:32.237Z,87.38
2022-09-14T07:36:34.848Z,87.27
2022-09-14T07:37:32.239Z,84.75
2022-09-14T07:38:51.101Z,86.73
2022-09-14T07:39:32.228Z,86.33
2022-09-14T07:40:32.214Z,86.53
2022-09-14T07:41:32.181Z,87.43
2022-09-14T07:42:32.177Z,87.63
2022-09-14T07:43:32.136Z,88.34
2022-09-14T07:44:32.156Z,88.30
2022-09-14T07:45:32.136Z,88.50
2022-09-14T07:46:32.114Z,88.20
2022-09-14T07:47:32.085Z,88.30
2022-09-14T07:48:32.056Z,87.49
2022-09-14T07:49:32.096Z,87.70
2022-09-14T07:50:32.051Z,88.60
2022-09-14T07:51:32.031Z,87.49
2022-09-14T07:52:35.553Z,87.80
2022-09-14T07:53:31.998Z,87.25
2022-09-14T07:54:31.992Z,85.64
2022-09-14T07:55:31.999Z,84.53
2022-09-14T07:56:31.961Z,83.08
2022-09-14T07:57:54.570Z,82.78
2022-09-14T07:58:31.939Z,84.35
2022-09-14T07:59:36.109Z,84.05
2022-09-14T08:00:31.937Z,83.84
2022-09-14T08:01:31.956Z,84.65
2022-09-14T08:02:31.970Z,84.95
2022-09-14T08:03:31.884Z,84.51
2022-09-14T08:04:31.882Z,82.40
2022-09-14T08:05:31.839Z,83.11
2022-09-14T08:06:31.823Z,83.20
2022-09-14T08:07:31.832Z,81.99
2022-09-14T08:08:32.415Z,81.96
2022-09-14T08:09:31.846Z,81.26
2022-09-14T08:10:31.765Z,80.45
2022-09-14T08:11:31.831Z,80.85
2022-09-14T08:12:31.779Z,81.96
2022-09-14T08:13:31.738Z,82.66
2022-09-14T08:14:31.706Z,82.22
2022-09-14T08:15:31.729Z,81.41
2022-09-14T08:16:31.745Z,81.32
2022-09-14T08:17:31.734Z,81.72
2022-09-14T08:18:31.667Z,81.82
2022-09-14T08:19:31.650Z,82.22
2022-09-14T08:20:31.630Z,82.42
2022-09-14T08:21:31.667Z,82.62
2022-09-14T08:22:31.621Z,82.98
2022-09-14T08:23:31.599Z,81.88
2022-09-14T08:24:31.576Z,82.38
2022-09-14T08:25:31.574Z,80.68
2022-09-14T08:26:31.583Z,80.27
2022-09-14T08:27:31.547Z,80.57
2022-09-14T08:28:31.530Z,81.34
2022-09-14T08:29:31.540Z,81.84
2022-09-14T08:30:31.575Z,81.94
2022-09-14T08:31:31.556Z,81.74
2022-09-14T08:32:31.500Z,81.20
2022-09-14T08:33:31.461Z,80.80
2022-09-14T08:34:31.474Z,80.30
2022-09-14T08:35:56.642Z,78.99
2022-09-14T08:36:31.472Z,78.66
2022-09-14T08:37:31.408Z,78.66
2022-09-14T08:38:31.397Z,79.55
2022-09-14T08:39:31.399Z,80.26
2022-09-14T08:40:31.482Z,80.16
2022-09-14T08:41:31.382Z,79.96
2022-09-14T08:42:31.353Z,78.05
2022-09-14T08:43:31.329Z,77.25
2022-09-14T08:44:31.309Z,77.05
2022-09-14T08:45:31.351Z,78.35
2022-09-14T08:46:31.330Z,78.35
2022-09-14T08:47:31.279Z,79.46
2022-09-14T08:48:31.278Z,79.66
2022-09-14T08:49:31.248Z,78.35
2022-09-14T08:50:33.816Z,78.85
2022-09-14T08:51:31.235Z,78.85
2022-09-14T08:52:31.222Z,79.16
2022-09-14T08:53:31.207Z,79.05
2022-09-14T08:54:31.363Z,78.85
2022-09-14T08:55:31.173Z,79.05
2022-09-14T08:56:31.165Z,79.66
2022-09-14T08:57:31.176Z,80.06
2022-09-14T08:58:31.139Z,79.66
2022-09-14T08:59:31.121Z,78.96
2022-09-14T09:00:31.309Z,79.55
2022-09-14T09:01:31.100Z,79.66
2022-09-14T09:02:31.107Z,78.35
2022-09-14T09:03:31.158Z,77.15
2022-09-14T09:04:31.091Z,77.95
2022-09-14T09:05:31.048Z,75.51
2022-09-14T09:06:31.040Z,74.80
2022-09-14T09:07:31.015Z,76.51
2022-09-14T09:08:31.045Z,76.91
2022-09-14T09:09:31.051Z,77.51
2022-09-14T09:10:31.017Z,78.02
2022-09-14T09:11:30.960Z,77.91
2022-09-14T09:12:30.980Z,76.98
2022-09-14T09:13:30.940Z,77.28
2022-09-14T09:14:30.958Z,77.28
2022-09-14T09:15:30.905Z,77.78
2022-09-14T09:16:30.972Z,77.17
2022-09-14T09:17:30.920Z,77.17
2022-09-14T09:18:30.871Z,76.47
2022-09-14T09:19:30.843Z,75.17
2022-09-14T09:20:30.835Z,76.17
2022-09-14T09:21:30.822Z,76.67
2022-09-14T09:22:30.840Z,76.28
2022-09-14T09:23:30.797Z,75.34
2022-09-14T09:24:34.137Z,73.93
2022-09-14T09:25:30.778Z,76.54
2022-09-14T09:26:30.773Z,76.84
2022-09-14T09:27:30.743Z,77.24
2022-09-14T09:28:30.759Z,77.64
2022-09-14T09:29:30.727Z,77.04
2022-09-14T09:30:30.714Z,76.14
2022-09-14T09:31:30.733Z,76.30
2022-09-14T09:32:30.672Z,76.20
2022-09-14T09:33:30.696Z,76.30
2022-09-14T09:34:30.665Z,76.40
2022-09-14T09:35:30.654Z,75.90
2022-09-14T09:36:30.627Z,76.80
2022-09-14T09:37:30.638Z,75.50
2022-09-14T09:38:30.627Z,75.50
2022-09-14T09:39:30.572Z,75.56
2022-09-14T09:40:30.641Z,73.66
2022-09-14T09:41:30.547Z,74.16
2022-09-14T09:42:30.563Z,74.66
2022-09-14T09:43:48.356Z,75.33
2022-09-14T09:44:30.527Z,74.93
2022-09-14T09:45:30.570Z,74.73
2022-09-14T09:46:30.527Z,74.83
2022-09-14T09:47:30.506Z,74.69
2022-09-14T09:48:30.461Z,74.99
2022-09-14T09:49:30.455Z,74.39
2022-09-14T09:50:30.468Z,75.05
2022-09-14T09:51:30.415Z,74.55
2022-09-14T09:52:30.460Z,74.02
2022-09-14T09:53:30.395Z,72.49
2022-09-14T09:54:30.382Z,71.66
2022-09-14T09:55:30.391Z,70.65
2022-09-14T09:56:30.352Z,69.02
2022-09-14T09:57:30.381Z,70.19
2022-09-14T09:58:30.337Z,67.36
2022-09-14T09:59:30.326Z,65.74
2022-09-14T10:00:30.299Z,65.14
2022-09-14T10:01:30.458Z,66.01
2022-09-14T10:02:30.404Z,64.39
2022-09-14T10:03:30.278Z,63.56
2022-09-14T10:04:30.242Z,64.55
2022-09-14T10:05:30.252Z,65.31
2022-09-14T10:06:30.239Z,63.60
2022-09-14T10:07:30.201Z,61.38
2022-09-14T10:08:30.197Z,60.26
2022-09-14T10:09:30.177Z,60.56
2022-09-14T10:10:30.193Z,62.91
2022-09-14T10:11:30.151Z,64.89
2022-09-14T10:12:30.239Z,64.67
2022-09-14T10:13:30.138Z,64.86
2022-09-14T10:14:30.109Z,64.07
2022-09-14T10:15:30.120Z,63.94
2022-09-14T10:16:30.206Z,62.85
2022-09-14T10:17:30.151Z,63.74
2022-09-14T10:18:30.058Z,63.91
2022-09-14T10:19:30.055Z,62.10
2022-09-14T10:20:30.062Z,61.80
2022-09-14T10:21:30.046Z,62.56
2022-09-14T10:22:30.001Z,61.77
2022-09-14T10:23:29.986Z,62.36
2022-09-14T10:24:30.012Z,61.64
2022-09-14T10:25:29.960Z,59.95
2022-09-14T10:26:29.987Z,56.20
2022-09-14T10:27:33.212Z,56.20
2022-09-14T10:28:29.958Z,56.76
2022-09-14T10:29:29.910Z,58.25
2022-09-14T10:30:29.912Z,57.43
2022-09-14T10:31:30.052Z,57.43
2022-09-14T10:32:29.871Z,57.60
2022-09-14T10:33:29.939Z,55.92
2022-09-14T10:34:29.844Z,57.57
2022-09-14T10:35:29.860Z,56.09
2022-09-14T10:36:29.925Z,54.68
2022-09-14T10:37:29.804Z,55.27
2022-09-14T10:38:29.807Z,55.07
2022-09-14T10:39:29.782Z,54.97
2022-09-14T10:40:29.866Z,55.57
2022-09-14T10:41:29.756Z,54.88
2022-09-14T10:42:29.735Z,54.97
2022-09-14T10:43:29.776Z,56.65
2022-09-14T10:44:29.724Z,55.94
2022-09-14T10:45:29.708Z,55.44
2022-09-14T10:46:29.750Z,55.24
2022-09-14T10:47:29.677Z,54.95
2022-09-14T10:48:29.698Z,55.54
2022-09-14T10:49:29.709Z,55.74
2022-09-14T10:50:29.649Z,55.57
2022-09-14T10:51:29.642Z,55.37
2022-09-14T10:52:29.619Z,55.66
2022-09-14T10:53:29.630Z,54.78
2022-09-14T10:54:29.594Z,54.38
2022-09-14T10:55:29.578Z,54.65
2022-09-14T10:56:29.575Z,53.57
2022-09-14T10:57:29.574Z,54.36
2022-09-14T10:58:30.148Z,55.12
2022-09-14T10:59:29.525Z,55.22
2022-09-14T11:00:29.514Z,55.12
2022-09-14T11:01:29.593Z,55.81
2022-09-14T11:02:29.730Z,55.62
2022-09-14T11:03:29.469Z,55.29
2022-09-14T11:04:29.458Z,54.80
2022-09-14T11:05:29.461Z,56.45
2022-09-14T11:06:29.497Z,55.56
2022-09-14T11:07:29.412Z,55.46
2022-09-14T11:08:29.429Z,55.04
2022-09-14T11:09:29.403Z,54.64
2022-09-14T11:10:29.392Z,54.94
2022-09-14T11:11:29.399Z,53.05
2022-09-14T11:12:29.370Z,54.43
2022-09-14T11:13:29.358Z,55.11
2022-09-14T11:14:29.420Z,54.84
2022-09-14T11:15:29.391Z,53.76
2022-09-14T11:16:29.373Z,53.30
2022-09-14T11:17:29.308Z,54.28
2022-09-14T11:18:29.285Z,54.60
2022-09-14T11:19:29.256Z,54.90
2022-09-14T11:20:29.287Z,55.09
2022-09-14T11:21:29.265Z,54.90
2022-09-14T11:22:29.256Z,55.98
2022-09-14T11:23:29.215Z,55.79
2022-09-14T11:24:29.207Z,55.19
2022-09-14T11:25:29.203Z,55.39
2022-09-14T11:26:29.191Z,55.39
2022-09-14T11:27:29.168Z,54.01
2022-09-14T11:28:29.157Z,54.90
2022-09-14T11:29:29.184Z,52.83
2022-09-14T11:30:29.137Z,51.81
2022-09-14T11:31:29.158Z,51.52
2022-09-14T11:32:29.101Z,51.52
2022-09-14T11:33:31.200Z,50.63
2022-09-14T11:34:29.115Z,51.30
2022-09-14T11:35:29.086Z,51.30
2022-09-14T11:36:29.057Z,51.89
2022-09-14T11:37:29.034Z,51.20
2022-09-14T11:38:29.105Z,49.90
2022-09-14T11:39:29.051Z,48.42
2022-09-14T11:40:29.162Z,49.30
2022-09-14T11:41:28.992Z,49.87
2022-09-14T11:42:28.991Z,48.20
2022-09-14T11:43:28.972Z,51.74
2022-09-14T11:44:28.988Z,50.44
2022-09-14T11:45:28.945Z,49.33
2022-09-14T11:46:28.991Z,48.77
2022-09-14T11:47:28.924Z,49.04
2022-09-14T11:48:44.437Z,49.23
2022-09-14T11:49:28.910Z,49.11
2022-09-14T11:50:28.882Z,49.60
2022-09-14T11:51:28.859Z,46.56
2022-09-14T11:52:28.864Z,44.30
2022-09-14T11:53:28.840Z,44.30
2022-09-14T11:54:28.878Z,47.27
2022-09-14T11:55:28.814Z,48.84
2022-09-14T11:56:28.787Z,51.69
2022-09-14T11:57:28.873Z,49.73
2022-09-14T11:58:28.770Z,49.43
2022-09-14T11:59:28.762Z,46.38
2022-09-14T12:00:28.749Z,48.15
2022-09-14T12:01:28.733Z,50.02
2022-09-14T12:02:28.794Z,49.31
2022-09-14T12:03:28.755Z,49.99
2022-09-14T12:04:28.703Z,48.43
2022-09-14T12:05:28.676Z,49.01
2022-09-14T12:06:28.700Z,48.94
2022-09-14T12:07:28.652Z,49.23
2022-09-14T12:08:28.651Z,48.77
2022-09-14T12:09:28.635Z,47.69
2022-09-14T12:10:28.651Z,48.39
2022-09-14T12:11:28.615Z,50.09
2022-09-14T12:12:28.595Z,50.19
2022-09-14T12:13:28.596Z,50.88
2022-09-14T12:14:28.594Z,50.59
2022-09-14T12:15:28.568Z,52.45
2022-09-14T12:16:32.726Z,50.16
2022-09-14T12:17:39.563Z,48.00
2022-09-14T12:18:28.527Z,48.57
2022-09-14T12:19:28.536Z,48.25
2022-09-14T12:20:28.530Z,47.76
2022-09-14T12:21:28.494Z,49.41
2022-09-14T12:22:28.488Z,47.76
2022-09-14T12:23:28.447Z,48.45
2022-09-14T12:24:28.450Z,48.84
2022-09-14T12:25:28.444Z,47.36
2022-09-14T12:26:28.419Z,46.26
2022-09-14T12:27:28.421Z,47.54
2022-09-14T12:28:28.387Z,47.91
2022-09-14T12:29:28.371Z,47.42
2022-09-14T12:30:28.390Z,48.11
2022-09-14T12:31:28.467Z,47.42
2022-09-14T12:32:28.337Z,48.01
2022-09-14T12:33:28.323Z,48.40
2022-09-14T12:34:28.315Z,49.60
2022-09-14T12:35:28.335Z,46.95
2022-09-14T12:36:28.283Z,46.85
2022-09-14T12:37:28.288Z,46.56
2022-09-14T12:38:28.280Z,48.03
2022-09-14T12:39:28.253Z,47.25
2022-09-14T12:40:28.339Z,48.62
2022-09-14T12:41:28.233Z,49.58
2022-09-14T12:42:28.229Z,49.08
2022-09-14T12:43:28.193Z,49.38
2022-09-14T12:44:28.207Z,49.60
2022-09-14T12:45:28.173Z,49.41
2022-09-14T12:46:28.227Z,49.51
2022-09-14T12:47:28.170Z,49.19
2022-09-14T12:48:28.136Z,49.87
2022-09-14T12:49:28.125Z,48.50
2022-09-14T12:50:28.110Z,48.91
2022-09-14T12:51:28.102Z,48.33
2022-09-14T12:52:28.111Z,49.41